createdAt,value
2022-11-23T00:00:06.246Z,4.50
2022-11-23T00:02:33.257Z,4.40
2022-11-23T00:04:59.861Z,4.30
2022-11-23T00:07:26.499Z,4.50
2022-11-23T00:09:53.110Z,4.40
2022-11-23T00:12:19.739Z,4.50
2022-11-23T00:14:46.337Z,4.60
2022-11-23T00:17:12.929Z,4.70
2022-11-23T00:19:39.551Z,4.70
2022-11-23T00:22:06.151Z,4.60
2022-11-23T00:24:32.818Z,4.40
2022-11-23T00:26:59.429Z,4.30
2022-11-23T00:29:27.302Z,4.20
2022-11-23T00:31:54.300Z,4.20
2022-11-23T00:34:20.908Z,4.30
2022-11-23T00:36:47.490Z,4.50
2022-11-23T00:39:14.120Z,4.60
2022-11-23T00:41:41.113Z,4.50
2022-11-23T00:44:07.874Z,4.40
2022-11-23T00:46:34.473Z,4.30
2022-11-23T00:49:01.670Z,4.20
2022-11-23T00:51:33.078Z,4.30
2022-11-23T00:54:00.117Z,4.50
2022-11-23T00:56:27.710Z,4.50
2022-11-23T00:58:55.257Z,4.60
2022-11-23T01:01:23.441Z,4.50
2022-11-23T01:03:51.328Z,4.30
2022-11-23T01:06:19.363Z,4.20
2022-11-23T01:08:53.747Z,4.30
2022-11-23T01:11:23.227Z,4.20
2022-11-23T01:13:50.209Z,4.20
2022-11-23T01:16:23.891Z,4.40
2022-11-23T01:18:54.672Z,4.40
2022-11-23T01:21:22.642Z,4.40
2022-11-23T01:23:49.283Z,4.40
2022-11-23T01:26:16.095Z,4.40
2022-11-23T01:28:42.787Z,4.50
2022-11-23T01:31:09.386Z,4.40
2022-11-23T01:33:36.703Z,4.20
2022-11-23T01:36:13.184Z,4.10
2022-11-23T01:38:40.659Z,4.00
2022-11-23T01:41:12.921Z,3.90
2022-11-23T01:43:39.590Z,3.80
2022-11-23T01:46:06.508Z,3.90
2022-11-23T01:48:44.373Z,3.80
2022-11-23T01:51:12.936Z,3.80
2022-11-23T01:53:40.227Z,3.80
2022-11-23T01:56:08.194Z,3.80
2022-11-23T01:58:37.023Z,3.80
2022-11-23T02:01:04.706Z,3.70
2022-11-23T02:03:32.408Z,3.80
2022-11-23T02:06:03.702Z,3.90
2022-11-23T02:08:31.250Z,3.80
2022-11-23T02:10:58.478Z,3.70
2022-11-23T02:13:25.788Z,3.60
2022-11-23T02:15:53.172Z,3.70
2022-11-23T02:18:22.324Z,3.90
2022-11-23T02:20:49.646Z,3.70
2022-11-23T02:23:31.370Z,3.80
2022-11-23T02:26:18.839Z,3.70
2022-11-23T02:28:47.160Z,3.70
2022-11-23T02:31:13.788Z,3.80
2022-11-23T02:33:41.057Z,3.90
2022-11-23T02:36:26.495Z,3.90
2022-11-23T02:38:54.527Z,3.90
2022-11-23T02:41:22.084Z,3.70
2022-11-23T02:43:52.946Z,3.60
2022-11-23T02:46:19.558Z,3.70
2022-11-23T02:48:49.359Z,3.60
2022-11-23T02:51:15.997Z,3.50
2022-11-23T02:53:42.590Z,3.60
2022-11-23T02:56:10.486Z,3.70
2022-11-23T02:58:37.073Z,3.80
2022-11-23T03:01:06.772Z,3.80
2022-11-23T03:03:33.587Z,3.80
2022-11-23T03:06:04.042Z,3.70
2022-11-23T03:08:32.452Z,3.80
2022-11-23T03:11:00.954Z,3.90
2022-11-23T03:13:28.992Z,3.80
2022-11-23T03:15:59.036Z,3.80
2022-11-23T03:18:26.827Z,3.80
2022-11-23T03:20:54.274Z,3.70
2022-11-23T03:23:20.949Z,3.70
2022-11-23T03:25:54.767Z,3.70
2022-11-23T03:28:21.495Z,3.60
2022-11-23T03:30:48.108Z,3.50
2022-11-23T03:33:14.733Z,3.60
2022-11-23T03:35:42.582Z,3.50
2022-11-23T03:38:17.370Z,3.50
2022-11-23T03:40:45.648Z,3.50
2022-11-23T03:43:23.791Z,3.40
2022-11-23T03:45:50.461Z,3.30
2022-11-23T03:48:17.434Z,3.20
2022-11-23T03:50:44.994Z,3.20
2022-11-23T03:53:11.818Z,3.20
2022-11-23T03:55:38.606Z,3.20
2022-11-23T03:58:05.309Z,3.20
2022-11-23T04:00:35.407Z,3.20
2022-11-23T04:03:02.081Z,3.20
2022-11-23T04:06:07.124Z,3.10
2022-11-23T04:09:00.370Z,3.10
2022-11-23T04:11:43.638Z,3.10
2022-11-23T04:14:10.337Z,3.00
2022-11-23T04:16:37.308Z,3.10
2022-11-23T04:19:04.662Z,3.10
2022-11-23T04:21:31.374Z,3.10
2022-11-23T04:23:58.524Z,3.00
2022-11-23T04:26:25.816Z,3.10
2022-11-23T04:28:52.412Z,3.10
2022-11-23T04:31:19.057Z,3.20
2022-11-23T04:34:05.630Z,3.10
2022-11-23T04:36:33.017Z,3.10
2022-11-23T04:39:00.831Z,3.10
2022-11-23T04:41:35.638Z,3.10
2022-11-23T04:44:03.875Z,3.10
2022-11-23T04:46:30.715Z,3.10
2022-11-23T04:48:59.505Z,3.00
2022-11-23T04:51:26.946Z,3.00
2022-11-23T04:53:54.573Z,3.20
2022-11-23T04:56:21.209Z,3.20
2022-11-23T04:58:48.271Z,3.30
2022-11-23T05:01:15.003Z,3.40
2022-11-23T05:04:01.624Z,3.40
2022-11-23T05:06:28.297Z,3.40
2022-11-23T05:08:55.004Z,3.40
2022-11-23T05:11:40.252Z,3.40
2022-11-23T05:14:08.758Z,3.40
2022-11-23T05:16:35.459Z,3.30
2022-11-23T05:19:02.089Z,3.30
2022-11-23T05:21:28.763Z,3.40
2022-11-23T05:23:55.586Z,3.30
2022-11-23T05:26:22.298Z,3.20
2022-11-23T05:28:49.030Z,3.10
2022-11-23T05:31:16.020Z,3.10
2022-11-23T05:33:45.352Z,3.00
2022-11-23T05:36:13.901Z,3.00
2022-11-23T05:38:42.056Z,3.00
2022-11-23T05:41:14.086Z,3.00
2022-11-23T05:43:42.922Z,3.10
2022-11-23T05:46:13.515Z,3.20
2022-11-23T05:48:41.869Z,3.30
2022-11-23T05:51:10.127Z,3.30
2022-11-23T05:53:41.903Z,3.40
2022-11-23T05:56:28.762Z,3.10
2022-11-23T05:59:10.975Z,3.30
2022-11-23T06:01:39.633Z,3.20
2022-11-23T06:04:08.415Z,3.00
2022-11-23T06:06:40.494Z,3.00
2022-11-23T06:09:07.106Z,3.00
2022-11-23T06:11:37.256Z,3.00
2022-11-23T06:14:13.919Z,3.00
2022-11-23T06:16:41.443Z,3.00
2022-11-23T06:19:25.394Z,3.00
2022-11-23T06:21:52.840Z,3.00
2022-11-23T06:24:21.114Z,3.00
2022-11-23T06:26:57.549Z,3.00
2022-11-23T06:29:24.282Z,3.10
2022-11-23T06:31:51.999Z,3.00
2022-11-23T06:34:19.122Z,3.00
2022-11-23T06:36:45.744Z,3.00
2022-11-23T06:39:13.244Z,3.00
2022-11-23T06:41:39.886Z,3.10
2022-11-23T06:44:06.647Z,3.10
2022-11-23T06:46:40.314Z,3.10
2022-11-23T06:49:07.613Z,3.10
2022-11-23T06:51:35.043Z,3.10
2022-11-23T06:54:01.765Z,3.20
2022-11-23T06:56:28.476Z,3.20
2022-11-23T06:58:55.277Z,3.20
2022-11-23T07:01:25.998Z,3.40
2022-11-23T07:04:01.714Z,3.40
2022-11-23T07:06:32.568Z,3.40
2022-11-23T07:09:04.151Z,3.40
2022-11-23T07:11:44.094Z,3.40
2022-11-23T07:14:11.448Z,3.50
2022-11-23T07:16:40.731Z,3.60
2022-11-23T07:19:07.880Z,3.70
2022-11-23T07:21:34.568Z,3.60
2022-11-23T07:24:01.206Z,3.70
2022-11-23T07:26:28.910Z,3.80
2022-11-23T07:28:55.512Z,3.90
2022-11-23T07:31:22.282Z,4.00
2022-11-23T07:33:50.691Z,4.00
2022-11-23T07:36:18.069Z,3.90
2022-11-23T07:38:45.642Z,4.10
2022-11-23T07:41:17.372Z,4.00
2022-11-23T07:44:03.310Z,4.00
2022-11-23T07:46:29.911Z,4.20
2022-11-23T07:49:01.273Z,4.10
2022-11-23T07:51:30.959Z,4.10
2022-11-23T07:53:57.851Z,4.30
2022-11-23T07:56:24.468Z,4.30
2022-11-23T07:58:51.055Z,4.40
2022-11-23T08:01:18.661Z,4.40
2022-11-23T08:03:45.867Z,4.50
2022-11-23T08:06:13.082Z,4.60
2022-11-23T08:08:39.851Z,4.80
2022-11-23T08:11:07.070Z,5.00
2022-11-23T08:13:34.718Z,5.00
2022-11-23T08:16:01.861Z,5.00
2022-11-23T08:18:28.490Z,5.00
2022-11-23T08:20:55.140Z,5.10
2022-11-23T08:23:21.873Z,5.10
2022-11-23T08:25:48.516Z,5.20
2022-11-23T08:28:15.587Z,5.30
2022-11-23T08:30:42.200Z,5.60
2022-11-23T08:33:09.000Z,5.60
2022-11-23T08:35:36.486Z,5.60
2022-11-23T08:38:04.055Z,5.80
2022-11-23T08:40:30.795Z,6.00
2022-11-23T08:42:57.403Z,6.20
2022-11-23T08:45:24.050Z,6.20
2022-11-23T08:47:51.109Z,6.40
2022-11-23T08:50:17.943Z,6.50
2022-11-23T08:52:44.516Z,6.50
2022-11-23T08:55:11.209Z,6.60
2022-11-23T08:57:37.808Z,6.70
2022-11-23T09:00:05.540Z,6.60
2022-11-23T09:02:32.188Z,6.80
2022-11-23T09:04:58.866Z,6.80
2022-11-23T09:07:25.571Z,6.70
2022-11-23T09:09:52.219Z,6.70
2022-11-23T09:12:18.932Z,6.70
2022-11-23T09:14:45.579Z,6.90
2022-11-23T09:17:12.237Z,6.90
2022-11-23T09:19:38.875Z,7.00
2022-11-23T09:22:05.457Z,7.10
2022-11-23T09:24:32.468Z,7.10
2022-11-23T09:26:59.492Z,7.10
2022-11-23T09:29:26.617Z,7.10
2022-11-23T09:31:53.272Z,7.00
2022-11-23T09:34:19.987Z,7.10
2022-11-23T09:36:46.872Z,7.30
2022-11-23T09:39:13.482Z,7.40
2022-11-23T09:41:49.115Z,7.20
2022-11-23T09:44:21.805Z,7.40
2022-11-23T09:46:54.620Z,7.40
2022-11-23T09:49:22.435Z,7.60
2022-11-23T09:51:50.950Z,7.50
2022-11-23T09:54:29.218Z,7.30
2022-11-23T09:57:01.390Z,7.30
2022-11-23T09:59:32.360Z,7.20
2022-11-23T10:01:59.357Z,7.10
2022-11-23T10:04:26.738Z,7.10
2022-11-23T10:06:58.931Z,7.00
2022-11-23T10:09:25.524Z,7.10
2022-11-23T10:11:55.188Z,7.20
2022-11-23T10:14:35.817Z,7.60
2022-11-23T10:17:17.634Z,8.00
2022-11-23T10:20:02.720Z,8.10
2022-11-23T10:22:44.607Z,8.10
2022-11-23T10:25:16.290Z,8.20
2022-11-23T10:27:43.850Z,8.40
2022-11-23T10:30:12.024Z,8.90
2022-11-23T10:32:42.142Z,9.10
2022-11-23T10:35:11.983Z,9.20
2022-11-23T10:37:42.786Z,8.90
2022-11-23T10:40:22.031Z,9.00
2022-11-23T10:42:51.974Z,9.10
2022-11-23T10:45:23.398Z,9.50
2022-11-23T10:47:59.332Z,9.50
2022-11-23T10:50:30.430Z,9.60
2022-11-23T10:52:59.327Z,9.40
2022-11-23T10:55:30.161Z,9.40
2022-11-23T10:57:56.989Z,9.50
2022-11-23T11:00:30.326Z,9.10
2022-11-23T11:02:58.237Z,9.20
2022-11-23T11:05:46.448Z,9.10
2022-11-23T11:08:13.894Z,8.60
2022-11-23T11:10:50.048Z,8.90
2022-11-23T11:13:22.904Z,8.50
2022-11-23T11:16:00.373Z,7.90
2022-11-23T11:18:32.114Z,8.00
2022-11-23T11:21:00.482Z,8.30
2022-11-23T11:23:28.583Z,8.50
2022-11-23T11:26:06.284Z,8.40
2022-11-23T11:28:43.565Z,8.30
2022-11-23T11:31:24.950Z,8.20
2022-11-23T11:33:51.527Z,8.20
2022-11-23T11:36:18.314Z,8.20
2022-11-23T11:39:15.084Z,8.00
2022-11-23T11:41:37.123Z,7.90
2022-11-23T11:44:09.685Z,7.90
2022-11-23T11:46:38.951Z,8.10
2022-11-23T11:49:17.762Z,8.40
2022-11-23T11:51:47.294Z,8.70
2022-11-23T11:54:22.956Z,8.80
2022-11-23T11:56:55.445Z,8.70
2022-11-23T11:59:28.228Z,8.60
2022-11-23T12:01:54.859Z,8.90
2022-11-23T12:04:25.837Z,9.10
2022-11-23T12:07:01.029Z,9.10
2022-11-23T12:09:31.579Z,8.90
2022-11-23T12:11:58.486Z,8.70
2022-11-23T12:14:25.204Z,8.50
2022-11-23T12:17:10.255Z,8.40
2022-11-23T12:19:59.304Z,8.70
2022-11-23T12:22:35.078Z,8.80
2022-11-23T12:25:20.481Z,8.60
2022-11-23T12:27:51.504Z,8.60
2022-11-23T12:30:25.813Z,8.90
2022-11-23T12:33:06.546Z,9.00
2022-11-23T12:35:40.024Z,9.00
2022-11-23T12:38:13.010Z,8.70
2022-11-23T12:40:39.679Z,8.60
2022-11-23T12:43:12.789Z,8.70
2022-11-23T12:45:46.434Z,8.80
2022-11-23T12:48:28.014Z,8.80
2022-11-23T12:51:13.348Z,8.60
2022-11-23T12:53:45.191Z,8.50
2022-11-23T12:56:17.784Z,8.50
2022-11-23T12:58:46.367Z,8.40
2022-11-23T13:01:16.018Z,8.20
2022-11-23T13:04:05.787Z,8.10
2022-11-23T13:06:49.990Z,8.00
2022-11-23T13:09:46.424Z,8.00
2022-11-23T13:12:22.269Z,8.00
2022-11-23T13:14:48.958Z,7.90
2022-11-23T13:17:21.766Z,8.30
2022-11-23T13:20:14.947Z,8.20
2022-11-23T13:22:45.508Z,8.00
2022-11-23T13:25:12.179Z,8.10
2022-11-23T13:27:50.642Z,8.20
2022-11-23T13:30:23.393Z,8.10
2022-11-23T13:32:56.118Z,7.90
2022-11-23T13:35:22.719Z,8.10
2022-11-23T13:37:58.375Z,7.70
2022-11-23T13:40:33.144Z,7.60
2022-11-23T13:43:01.470Z,7.50
2022-11-23T13:45:37.187Z,7.70
2022-11-23T13:48:03.811Z,7.60
2022-11-23T13:50:30.620Z,7.60
2022-11-23T13:52:57.423Z,7.50
2022-11-23T13:55:33.138Z,7.50
2022-11-23T13:58:18.581Z,7.40
2022-11-23T14:00:48.387Z,7.30
2022-11-23T14:03:33.923Z,7.30
2022-11-23T14:06:01.912Z,7.40
2022-11-23T14:08:28.901Z,7.40
2022-11-23T14:10:57.391Z,7.40
2022-11-23T14:13:25.739Z,7.30
2022-11-23T14:15:57.270Z,7.40
2022-11-23T14:18:25.209Z,7.30
2022-11-23T14:21:07.321Z,7.20
2022-11-23T14:23:57.245Z,7.20
2022-11-23T14:26:45.972Z,7.20
2022-11-23T14:29:31.502Z,7.20
2022-11-23T14:32:04.356Z,7.20
2022-11-23T14:34:31.933Z,7.10
2022-11-23T14:37:07.755Z,7.00
2022-11-23T14:39:49.757Z,7.00
2022-11-23T14:42:21.454Z,7.00
2022-11-23T14:44:48.850Z,6.90
2022-11-23T14:47:24.640Z,6.80
2022-11-23T14:49:51.590Z,6.70
2022-11-23T14:52:22.627Z,6.60
2022-11-23T14:54:50.888Z,6.80
2022-11-23T14:57:19.483Z,6.60
2022-11-23T14:59:52.192Z,6.60
2022-11-23T15:02:21.142Z,6.50
2022-11-23T15:04:58.353Z,6.40
2022-11-23T15:07:28.215Z,6.40
2022-11-23T15:09:54.950Z,6.20
2022-11-23T15:12:23.851Z,6.10
2022-11-23T15:14:51.100Z,6.00
2022-11-23T15:17:19.288Z,5.90
2022-11-23T15:19:56.342Z,5.80
2022-11-23T15:22:24.568Z,5.70
2022-11-23T15:24:51.313Z,5.60
2022-11-23T15:27:23.744Z,5.60
2022-11-23T15:29:51.852Z,5.40
2022-11-23T15:32:33.695Z,5.40
2022-11-23T15:35:03.851Z,5.20
2022-11-23T15:37:30.734Z,5.10
2022-11-23T15:39:57.482Z,4.90
2022-11-23T15:42:25.344Z,4.80
2022-11-23T15:44:54.940Z,5.00
2022-11-23T15:47:26.123Z,4.80
2022-11-23T15:50:01.070Z,4.70
2022-11-23T15:52:29.154Z,4.50
2022-11-23T15:54:55.885Z,4.40
2022-11-23T15:57:25.163Z,4.40
2022-11-23T16:00:04.817Z,4.70
2022-11-23T16:02:38.374Z,4.50
2022-11-23T16:05:13.128Z,4.30
2022-11-23T16:07:57.464Z,4.10
2022-11-23T16:10:27.779Z,4.00
2022-11-23T16:12:55.749Z,3.90
2022-11-23T16:15:30.529Z,4.20
2022-11-23T16:17:57.201Z,3.90
2022-11-23T16:20:24.585Z,3.80
2022-11-23T16:22:52.481Z,3.80
2022-11-23T16:25:22.314Z,3.70
2022-11-23T16:27:58.397Z,3.60
2022-11-23T16:30:26.254Z,3.70
2022-11-23T16:32:53.038Z,3.80
2022-11-23T16:35:20.694Z,3.90
2022-11-23T16:37:47.376Z,3.80
2022-11-23T16:40:14.589Z,3.50
2022-11-23T16:42:41.438Z,3.40
2022-11-23T16:45:08.724Z,3.40
2022-11-23T16:47:35.571Z,3.50
2022-11-23T16:50:02.268Z,3.40
2022-11-23T16:52:28.887Z,3.40
2022-11-23T16:54:55.571Z,3.30
2022-11-23T16:57:32.936Z,3.20
2022-11-23T17:00:01.802Z,3.20
2022-11-23T17:02:28.493Z,3.10
2022-11-23T17:04:55.776Z,3.10
2022-11-23T17:07:22.506Z,3.30
2022-11-23T17:09:49.124Z,3.20
2022-11-23T17:12:17.424Z,2.90
2022-11-23T17:14:48.068Z,2.80
2022-11-23T17:17:17.194Z,2.70
2022-11-23T17:19:48.047Z,2.60
2022-11-23T17:22:15.693Z,2.50
2022-11-23T17:24:42.712Z,2.40
2022-11-23T17:27:12.464Z,2.40
2022-11-23T17:29:41.999Z,2.30
2022-11-23T17:32:13.068Z,2.40
2022-11-23T17:34:41.219Z,2.50
2022-11-23T17:37:26.397Z,2.80
2022-11-23T17:39:53.147Z,2.70
2022-11-23T17:42:20.613Z,2.50
2022-11-23T17:44:47.583Z,2.20
2022-11-23T17:47:17.432Z,2.10
2022-11-23T17:49:44.084Z,2.30
2022-11-23T17:52:11.284Z,2.40
2022-11-23T17:54:37.935Z,2.20
2022-11-23T17:57:04.756Z,2.40
2022-11-23T17:59:31.749Z,2.30
2022-11-23T18:01:58.765Z,2.30
2022-11-23T18:04:25.570Z,2.30
2022-11-23T18:06:52.175Z,2.40
2022-11-23T18:09:18.828Z,2.00
2022-11-23T18:11:45.491Z,1.90
2022-11-23T18:14:12.132Z,1.70
2022-11-23T18:16:39.362Z,1.50
2022-11-23T18:19:06.040Z,1.60
2022-11-23T18:21:32.630Z,1.70
2022-11-23T18:24:04.368Z,1.80
2022-11-23T18:26:31.763Z,2.30
2022-11-23T18:28:58.392Z,2.30
2022-11-23T18:31:25.083Z,2.00
2022-11-23T18:33:51.856Z,1.90
2022-11-23T18:36:18.509Z,2.00
2022-11-23T18:38:45.538Z,2.10
2022-11-23T18:41:13.146Z,1.90
2022-11-23T18:43:39.764Z,1.40
2022-11-23T18:46:07.025Z,1.50
2022-11-23T18:48:34.256Z,1.30
2022-11-23T18:51:01.423Z,1.20
2022-11-23T18:53:28.197Z,1.40
2022-11-23T18:56:00.119Z,1.40
2022-11-23T18:58:31.558Z,1.30
2022-11-23T19:00:58.167Z,1.10
2022-11-23T19:03:24.819Z,1.20
2022-11-23T19:05:51.482Z,1.50
2022-11-23T19:08:18.268Z,1.60
2022-11-23T19:10:44.944Z,1.60
2022-11-23T19:13:11.640Z,1.80
2022-11-23T19:15:38.743Z,2.00
2022-11-23T19:18:05.996Z,2.30
2022-11-23T19:20:32.750Z,2.30
2022-11-23T19:22:59.434Z,2.60
2022-11-23T19:25:26.075Z,2.70
2022-11-23T19:27:53.017Z,2.70
2022-11-23T19:30:19.803Z,2.80
2022-11-23T19:32:46.591Z,2.90
2022-11-23T19:35:13.220Z,2.90
2022-11-23T19:37:39.910Z,3.00
2022-11-23T19:40:07.031Z,3.10
2022-11-23T19:42:34.930Z,3.30
2022-11-23T19:45:01.776Z,3.20
2022-11-23T19:47:29.113Z,3.30
2022-11-23T19:49:55.736Z,3.30
2022-11-23T19:52:22.434Z,3.30
2022-11-23T19:54:49.075Z,3.50
2022-11-23T19:57:15.721Z,3.60
2022-11-23T19:59:42.350Z,3.50
2022-11-23T20:02:12.306Z,3.50
2022-11-23T20:04:39.046Z,3.50
2022-11-23T20:07:05.868Z,3.70
2022-11-23T20:09:32.918Z,3.70
2022-11-23T20:12:00.305Z,3.80
2022-11-23T20:14:27.243Z,3.60
2022-11-23T20:16:53.914Z,3.60
2022-11-23T20:19:20.533Z,3.60
2022-11-23T20:21:47.396Z,3.90
2022-11-23T20:24:14.408Z,3.90
2022-11-23T20:26:41.819Z,3.90
2022-11-23T20:29:10.648Z,4.00
2022-11-23T20:31:37.730Z,4.10
2022-11-23T20:34:07.601Z,4.10
2022-11-23T20:36:36.018Z,4.10
2022-11-23T20:39:04.731Z,3.90
2022-11-23T20:41:32.672Z,3.80
2022-11-23T20:44:00.577Z,3.90
2022-11-23T20:49:15.056Z,4.00
2022-11-23T20:51:41.686Z,3.90
2022-11-23T20:54:08.790Z,3.80
2022-11-23T20:56:37.453Z,3.70
2022-11-23T20:59:04.653Z,3.80
2022-11-23T21:01:31.521Z,3.90
2022-11-23T21:03:58.830Z,4.00
2022-11-23T21:06:26.369Z,3.90
2022-11-23T21:08:53.013Z,4.00
2022-11-23T21:11:43.109Z,3.80
2022-11-23T21:14:19.697Z,3.80
2022-11-23T21:16:46.417Z,3.70
2022-11-23T21:19:14.061Z,3.70
2022-11-23T21:21:40.714Z,4.00
2022-11-23T21:24:07.412Z,3.80
2022-11-23T21:26:34.203Z,3.90
2022-11-23T21:29:00.982Z,3.90
2022-11-23T21:31:27.654Z,3.90
2022-11-23T21:33:55.513Z,3.80
2022-11-23T21:36:22.450Z,3.80
2022-11-23T21:38:49.112Z,3.80
2022-11-23T21:41:16.860Z,3.90
2022-11-23T21:43:45.514Z,3.80
2022-11-23T21:46:12.733Z,3.70
2022-11-23T21:48:39.807Z,3.80
2022-11-23T21:51:07.722Z,3.90
2022-11-23T21:53:34.894Z,3.80
2022-11-23T21:56:02.626Z,3.90
2022-11-23T21:58:29.309Z,3.90
2022-11-23T22:01:02.019Z,3.80
2022-11-23T22:03:28.650Z,3.90
2022-11-23T22:05:56.633Z,3.90
2022-11-23T22:08:31.399Z,3.90
2022-11-23T22:10:58.425Z,3.90
2022-11-23T22:13:25.986Z,4.00
2022-11-23T22:15:52.886Z,4.10
2022-11-23T22:18:19.542Z,4.10
2022-11-23T22:20:46.184Z,4.10
2022-11-23T22:23:12.944Z,4.10
2022-11-23T22:25:43.009Z,4.10
2022-11-23T22:28:13.510Z,4.10
2022-11-23T22:30:40.118Z,4.10
2022-11-23T22:33:06.739Z,4.20
2022-11-23T22:35:33.371Z,4.30
2022-11-23T22:38:00.035Z,4.30
2022-11-23T22:40:32.545Z,4.40
2022-11-23T22:42:59.463Z,4.40
2022-11-23T22:45:26.109Z,4.50
2022-11-23T22:47:52.789Z,4.50
2022-11-23T22:50:19.542Z,4.60
2022-11-23T22:52:46.500Z,4.60
2022-11-23T22:55:13.109Z,4.70
2022-11-23T22:57:39.715Z,4.70
2022-11-23T23:00:10.744Z,4.70
2022-11-23T23:02:37.547Z,4.80
2022-11-23T23:05:04.340Z,4.90
2022-11-23T23:07:31.456Z,5.00
2022-11-23T23:09:58.127Z,5.00
2022-11-23T23:12:24.754Z,5.10
2022-11-23T23:14:51.362Z,5.10
2022-11-23T23:17:17.987Z,5.00
2022-11-23T23:19:44.646Z,5.10
2022-11-23T23:22:11.464Z,5.20
2022-11-23T23:24:38.051Z,5.20
2022-11-23T23:27:04.679Z,5.30
2022-11-23T23:29:31.674Z,5.30
2022-11-23T23:31:58.350Z,5.30
2022-11-23T23:34:24.969Z,5.40
2022-11-23T23:36:51.652Z,5.50
2022-11-23T23:39:18.230Z,5.50
2022-11-23T23:41:44.895Z,5.40
2022-11-23T23:44:11.865Z,5.40
2022-11-23T23:46:38.551Z,5.50
2022-11-23T23:49:05.181Z,5.50
2022-11-23T23:51:31.768Z,5.50
2022-11-23T23:53:58.424Z,5.50
2022-11-23T23:56:26.294Z,5.50
2022-11-23T23:58:54.823Z,5.60
